sensor_id;sensor_type;location;lat;lon;timestamp;P1;durP1;ratioP1;P2;durP2;ratioP2
34278;SDS011;20538;51.528;9.942;2023-09-30T00:00:00;2.90;;;1.75;;
34278;SDS011;20538;51.528;9.942;2023-09-30T00:02:26;4.45;;;1.80;;
34278;SDS011;20538;51.528;9.942;2023-09-30T00:04:52;5.38;;;2.00;;
34278;SDS011;20538;51.528;9.942;2023-09-30T00:07:18;4.63;;;1.98;;
34278;SDS011;20538;51.528;9.942;2023-09-30T00:09:44;1.67;;;1.25;;
34278;SDS011;20538;51.528;9.942;2023-09-30T00:12:10;6.65;;;1.38;;
34278;SDS011;20538;51.528;9.942;2023-09-30T00:14:35;4.72;;;1.67;;
34278;SDS011;20538;51.528;9.942;2023-09-30T00:17:02;4.90;;;1.52;;
34278;SDS011;20538;51.528;9.942;2023-09-30T00:19:28;7.90;;;1.77;;
34278;SDS011;20538;51.528;9.942;2023-09-30T00:21:54;6.68;;;1.70;;
34278;SDS011;20538;51.528;9.942;2023-09-30T00:24:19;3.22;;;1.42;;
34278;SDS011;20538;51.528;9.942;2023-09-30T00:26:45;2.08;;;1.27;;
34278;SDS011;20538;51.528;9.942;2023-09-30T00:29:11;6.38;;;2.45;;
34278;SDS011;20538;51.528;9.942;2023-09-30T00:31:36;9.48;;;2.70;;
34278;SDS011;20538;51.528;9.942;2023-09-30T00:34:02;3.42;;;1.38;;
34278;SDS011;20538;51.528;9.942;2023-09-30T00:36:28;8.48;;;2.10;;
34278;SDS011;20538;51.528;9.942;2023-09-30T00:38:53;4.57;;;1.88;;
34278;SDS011;20538;51.528;9.942;2023-09-30T00:41:19;5.15;;;1.75;;
34278;SDS011;20538;51.528;9.942;2023-09-30T00:43:47;3.58;;;1.85;;
34278;SDS011;20538;51.528;9.942;2023-09-30T00:48:58;4.75;;;1.90;;
34278;SDS011;20538;51.528;9.942;2023-09-30T00:51:25;10.88;;;1.98;;
34278;SDS011;20538;51.528;9.942;2023-09-30T00:53:52;4.18;;;2.28;;
34278;SDS011;20538;51.528;9.942;2023-09-30T00:56:19;5.25;;;2.05;;
34278;SDS011;20538;51.528;9.942;2023-09-30T00:58:47;4.15;;;1.55;;
34278;SDS011;20538;51.528;9.942;2023-09-30T01:01:16;5.03;;;1.50;;
34278;SDS011;20538;51.528;9.942;2023-09-30T01:03:42;7.05;;;1.98;;
34278;SDS011;20538;51.528;9.942;2023-09-30T01:06:08;5.43;;;1.77;;
34278;SDS011;20538;51.528;9.942;2023-09-30T01:08:34;3.47;;;1.77;;
34278;SDS011;20538;51.528;9.942;2023-09-30T01:11:00;7.18;;;1.95;;
34278;SDS011;20538;51.528;9.942;2023-09-30T01:13:35;5.50;;;1.90;;
34278;SDS011;20538;51.528;9.942;2023-09-30T01:16:03;5.82;;;1.85;;
34278;SDS011;20538;51.528;9.942;2023-09-30T01:18:35;5.45;;;1.98;;
34278;SDS011;20538;51.528;9.942;2023-09-30T01:21:03;4.15;;;1.80;;
34278;SDS011;20538;51.528;9.942;2023-09-30T01:23:30;5.05;;;2.00;;
34278;SDS011;20538;51.528;9.942;2023-09-30T01:25:56;7.90;;;2.13;;
34278;SDS011;20538;51.528;9.942;2023-09-30T01:28:24;5.65;;;1.98;;
34278;SDS011;20538;51.528;9.942;2023-09-30T01:30:49;4.57;;;1.75;;
34278;SDS011;20538;51.528;9.942;2023-09-30T01:33:16;9.43;;;1.73;;
34278;SDS011;20538;51.528;9.942;2023-09-30T01:35:42;4.50;;;1.67;;
34278;SDS011;20538;51.528;9.942;2023-09-30T01:38:07;6.18;;;1.83;;
34278;SDS011;20538;51.528;9.942;2023-09-30T01:40:33;8.25;;;2.00;;
34278;SDS011;20538;51.528;9.942;2023-09-30T01:42:58;3.25;;;1.55;;
34278;SDS011;20538;51.528;9.942;2023-09-30T01:45:24;6.70;;;2.55;;
34278;SDS011;20538;51.528;9.942;2023-09-30T01:47:50;5.68;;;1.83;;
34278;SDS011;20538;51.528;9.942;2023-09-30T01:50:15;5.55;;;1.77;;
34278;SDS011;20538;51.528;9.942;2023-09-30T01:52:42;4.53;;;1.98;;
34278;SDS011;20538;51.528;9.942;2023-09-30T01:55:08;7.78;;;2.25;;
34278;SDS011;20538;51.528;9.942;2023-09-30T01:57:33;7.75;;;2.67;;
34278;SDS011;20538;51.528;9.942;2023-09-30T01:59:59;5.38;;;2.47;;
34278;SDS011;20538;51.528;9.942;2023-09-30T02:02:24;10.13;;;1.92;;
34278;SDS011;20538;51.528;9.942;2023-09-30T02:04:51;3.53;;;1.88;;
34278;SDS011;20538;51.528;9.942;2023-09-30T02:07:21;3.90;;;2.15;;
34278;SDS011;20538;51.528;9.942;2023-09-30T02:09:47;4.97;;;1.98;;
34278;SDS011;20538;51.528;9.942;2023-09-30T02:12:13;7.75;;;2.50;;
34278;SDS011;20538;51.528;9.942;2023-09-30T02:14:39;12.60;;;2.33;;
34278;SDS011;20538;51.528;9.942;2023-09-30T02:17:04;8.10;;;2.33;;
34278;SDS011;20538;51.528;9.942;2023-09-30T02:19:30;2.92;;;1.85;;
34278;SDS011;20538;51.528;9.942;2023-09-30T02:21:58;6.55;;;1.80;;
34278;SDS011;20538;51.528;9.942;2023-09-30T02:24:24;8.88;;;1.80;;
34278;SDS011;20538;51.528;9.942;2023-09-30T02:26:50;4.85;;;2.30;;
34278;SDS011;20538;51.528;9.942;2023-09-30T02:29:16;5.20;;;2.15;;
34278;SDS011;20538;51.528;9.942;2023-09-30T02:31:41;4.18;;;2.15;;
34278;SDS011;20538;51.528;9.942;2023-09-30T02:34:07;5.63;;;1.90;;
34278;SDS011;20538;51.528;9.942;2023-09-30T02:36:33;2.97;;;1.65;;
34278;SDS011;20538;51.528;9.942;2023-09-30T02:39:04;4.72;;;2.28;;
34278;SDS011;20538;51.528;9.942;2023-09-30T02:41:30;9.35;;;2.47;;
34278;SDS011;20538;51.528;9.942;2023-09-30T02:43:56;3.30;;;1.63;;
34278;SDS011;20538;51.528;9.942;2023-09-30T02:46:21;6.90;;;1.40;;
34278;SDS011;20538;51.528;9.942;2023-09-30T02:48:47;6.15;;;2.75;;
34278;SDS011;20538;51.528;9.942;2023-09-30T02:51:12;9.45;;;2.78;;
34278;SDS011;20538;51.528;9.942;2023-09-30T02:53:38;3.90;;;1.60;;
34278;SDS011;20538;51.528;9.942;2023-09-30T02:56:04;5.72;;;2.35;;
34278;SDS011;20538;51.528;9.942;2023-09-30T02:58:29;8.50;;;2.03;;
34278;SDS011;20538;51.528;9.942;2023-09-30T03:00:55;9.38;;;2.33;;
34278;SDS011;20538;51.528;9.942;2023-09-30T03:03:24;7.18;;;1.58;;
34278;SDS011;20538;51.528;9.942;2023-09-30T03:05:50;4.43;;;2.00;;
34278;SDS011;20538;51.528;9.942;2023-09-30T03:08:16;11.15;;;2.38;;
34278;SDS011;20538;51.528;9.942;2023-09-30T03:10:42;4.28;;;2.08;;
34278;SDS011;20538;51.528;9.942;2023-09-30T03:13:08;6.32;;;1.98;;
34278;SDS011;20538;51.528;9.942;2023-09-30T03:15:34;7.18;;;2.20;;
34278;SDS011;20538;51.528;9.942;2023-09-30T03:18:00;5.57;;;2.28;;
34278;SDS011;20538;51.528;9.942;2023-09-30T03:20:26;7.00;;;1.80;;
34278;SDS011;20538;51.528;9.942;2023-09-30T03:22:52;3.70;;;1.88;;
34278;SDS011;20538;51.528;9.942;2023-09-30T03:25:18;6.20;;;2.45;;
34278;SDS011;20538;51.528;9.942;2023-09-30T03:27:45;4.40;;;1.85;;
34278;SDS011;20538;51.528;9.942;2023-09-30T03:30:12;7.18;;;2.33;;
34278;SDS011;20538;51.528;9.942;2023-09-30T03:32:42;12.10;;;2.42;;
34278;SDS011;20538;51.528;9.942;2023-09-30T03:35:08;3.42;;;1.48;;
34278;SDS011;20538;51.528;9.942;2023-09-30T03:37:44;4.45;;;1.70;;
34278;SDS011;20538;51.528;9.942;2023-09-30T03:40:11;4.97;;;2.17;;
34278;SDS011;20538;51.528;9.942;2023-09-30T03:42:43;8.90;;;1.77;;
34278;SDS011;20538;51.528;9.942;2023-09-30T03:45:10;6.13;;;2.03;;
34278;SDS011;20538;51.528;9.942;2023-09-30T03:47:36;3.50;;;1.52;;
34278;SDS011;20538;51.528;9.942;2023-09-30T03:50:03;7.30;;;2.20;;
34278;SDS011;20538;51.528;9.942;2023-09-30T03:52:30;4.43;;;2.00;;
34278;SDS011;20538;51.528;9.942;2023-09-30T03:54:59;12.60;;;2.78;;
34278;SDS011;20538;51.528;9.942;2023-09-30T03:57:30;4.88;;;1.77;;
34278;SDS011;20538;51.528;9.942;2023-09-30T03:59:57;6.85;;;2.20;;
34278;SDS011;20538;51.528;9.942;2023-09-30T04:02:22;5.22;;;1.75;;
34278;SDS011;20538;51.528;9.942;2023-09-30T04:04:48;11.07;;;1.95;;
34278;SDS011;20538;51.528;9.942;2023-09-30T04:07:16;6.57;;;2.63;;
34278;SDS011;20538;51.528;9.942;2023-09-30T04:09:41;7.70;;;2.28;;
34278;SDS011;20538;51.528;9.942;2023-09-30T04:12:07;9.10;;;2.80;;
34278;SDS011;20538;51.528;9.942;2023-09-30T04:14:33;4.22;;;2.33;;
34278;SDS011;20538;51.528;9.942;2023-09-30T04:16:58;5.47;;;2.05;;
34278;SDS011;20538;51.528;9.942;2023-09-30T04:19:24;5.50;;;2.28;;
34278;SDS011;20538;51.528;9.942;2023-09-30T04:21:50;6.97;;;2.30;;
34278;SDS011;20538;51.528;9.942;2023-09-30T04:24:15;10.15;;;2.53;;
34278;SDS011;20538;51.528;9.942;2023-09-30T04:26:41;5.88;;;2.13;;
34278;SDS011;20538;51.528;9.942;2023-09-30T04:29:06;9.07;;;2.38;;
34278;SDS011;20538;51.528;9.942;2023-09-30T04:31:36;10.18;;;2.53;;
34278;SDS011;20538;51.528;9.942;2023-09-30T04:34:04;5.60;;;2.00;;
34278;SDS011;20538;51.528;9.942;2023-09-30T04:36:30;6.47;;;2.58;;
34278;SDS011;20538;51.528;9.942;2023-09-30T04:38:56;13.27;;;2.92;;
34278;SDS011;20538;51.528;9.942;2023-09-30T04:41:26;6.90;;;1.95;;
34278;SDS011;20538;51.528;9.942;2023-09-30T04:43:51;4.40;;;1.75;;
34278;SDS011;20538;51.528;9.942;2023-09-30T04:46:17;12.88;;;3.05;;
34278;SDS011;20538;51.528;9.942;2023-09-30T04:48:48;3.00;;;1.75;;
34278;SDS011;20538;51.528;9.942;2023-09-30T04:51:13;10.50;;;2.45;;
34278;SDS011;20538;51.528;9.942;2023-09-30T04:53:42;4.25;;;1.58;;
34278;SDS011;20538;51.528;9.942;2023-09-30T04:56:10;4.10;;;1.95;;
34278;SDS011;20538;51.528;9.942;2023-09-30T04:58:35;6.32;;;1.92;;
34278;SDS011;20538;51.528;9.942;2023-09-30T05:01:01;6.95;;;2.00;;
34278;SDS011;20538;51.528;9.942;2023-09-30T05:03:26;4.35;;;1.92;;
34278;SDS011;20538;51.528;9.942;2023-09-30T05:05:52;4.63;;;2.00;;
34278;SDS011;20538;51.528;9.942;2023-09-30T05:08:20;7.43;;;2.45;;
34278;SDS011;20538;51.528;9.942;2023-09-30T05:10:47;4.25;;;1.70;;
34278;SDS011;20538;51.528;9.942;2023-09-30T05:13:13;6.40;;;2.72;;
34278;SDS011;20538;51.528;9.942;2023-09-30T05:15:38;3.97;;;2.10;;
34278;SDS011;20538;51.528;9.942;2023-09-30T05:18:06;7.60;;;3.40;;
34278;SDS011;20538;51.528;9.942;2023-09-30T05:20:34;8.93;;;2.45;;
34278;SDS011;20538;51.528;9.942;2023-09-30T05:23:02;7.40;;;2.08;;
34278;SDS011;20538;51.528;9.942;2023-09-30T05:25:28;4.35;;;2.08;;
34278;SDS011;20538;51.528;9.942;2023-09-30T05:27:53;4.07;;;1.65;;
34278;SDS011;20538;51.528;9.942;2023-09-30T05:30:19;7.95;;;2.70;;
34278;SDS011;20538;51.528;9.942;2023-09-30T05:32:45;4.05;;;1.80;;
34278;SDS011;20538;51.528;9.942;2023-09-30T05:35:11;5.78;;;2.13;;
34278;SDS011;20538;51.528;9.942;2023-09-30T05:37:41;10.93;;;2.33;;
34278;SDS011;20538;51.528;9.942;2023-09-30T05:40:08;7.25;;;2.55;;
34278;SDS011;20538;51.528;9.942;2023-09-30T05:42:47;7.03;;;1.83;;
34278;SDS011;20538;51.528;9.942;2023-09-30T05:45:14;4.53;;;1.80;;
34278;SDS011;20538;51.528;9.942;2023-09-30T05:47:40;8.52;;;2.38;;
34278;SDS011;20538;51.528;9.942;2023-09-30T05:50:06;14.13;;;2.03;;
34278;SDS011;20538;51.528;9.942;2023-09-30T05:52:34;6.07;;;2.20;;
34278;SDS011;20538;51.528;9.942;2023-09-30T05:55:00;7.22;;;1.88;;
34278;SDS011;20538;51.528;9.942;2023-09-30T05:57:27;4.55;;;1.50;;
34278;SDS011;20538;51.528;9.942;2023-09-30T05:59:53;6.20;;;1.85;;
34278;SDS011;20538;51.528;9.942;2023-09-30T06:02:19;6.03;;;1.83;;
34278;SDS011;20538;51.528;9.942;2023-09-30T06:04:44;8.27;;;1.58;;
34278;SDS011;20538;51.528;9.942;2023-09-30T06:07:11;6.32;;;2.08;;
34278;SDS011;20538;51.528;9.942;2023-09-30T06:09:37;9.88;;;2.25;;
34278;SDS011;20538;51.528;9.942;2023-09-30T06:12:03;7.03;;;2.20;;
34278;SDS011;20538;51.528;9.942;2023-09-30T06:14:31;5.65;;;2.63;;
34278;SDS011;20538;51.528;9.942;2023-09-30T06:16:57;9.65;;;1.77;;
34278;SDS011;20538;51.528;9.942;2023-09-30T06:19:23;6.45;;;1.92;;
34278;SDS011;20538;51.528;9.942;2023-09-30T06:21:50;4.55;;;1.23;;
34278;SDS011;20538;51.528;9.942;2023-09-30T06:24:16;12.82;;;1.70;;
34278;SDS011;20538;51.528;9.942;2023-09-30T06:26:44;6.70;;;1.45;;
34278;SDS011;20538;51.528;9.942;2023-09-30T06:29:10;4.45;;;1.70;;
34278;SDS011;20538;51.528;9.942;2023-09-30T06:31:36;4.45;;;1.52;;
34278;SDS011;20538;51.528;9.942;2023-09-30T06:34:02;6.50;;;2.05;;
34278;SDS011;20538;51.528;9.942;2023-09-30T06:36:29;5.40;;;1.58;;
34278;SDS011;20538;51.528;9.942;2023-09-30T06:38:55;5.97;;;1.80;;
34278;SDS011;20538;51.528;9.942;2023-09-30T06:41:20;10.10;;;2.40;;
34278;SDS011;20538;51.528;9.942;2023-09-30T06:43:46;6.60;;;2.28;;
34278;SDS011;20538;51.528;9.942;2023-09-30T06:46:12;9.18;;;1.48;;
34278;SDS011;20538;51.528;9.942;2023-09-30T06:48:38;5.60;;;1.65;;
34278;SDS011;20538;51.528;9.942;2023-09-30T06:51:07;4.78;;;1.45;;
34278;SDS011;20538;51.528;9.942;2023-09-30T06:53:38;21.45;;;2.42;;
34278;SDS011;20538;51.528;9.942;2023-09-30T06:56:06;6.85;;;2.05;;
34278;SDS011;20538;51.528;9.942;2023-09-30T06:58:32;9.82;;;2.00;;
34278;SDS011;20538;51.528;9.942;2023-09-30T07:00:58;7.85;;;1.77;;
34278;SDS011;20538;51.528;9.942;2023-09-30T07:03:23;10.38;;;2.63;;
34278;SDS011;20538;51.528;9.942;2023-09-30T07:05:49;4.00;;;1.15;;
34278;SDS011;20538;51.528;9.942;2023-09-30T07:08:16;7.10;;;1.98;;
34278;SDS011;20538;51.528;9.942;2023-09-30T07:10:42;13.05;;;2.30;;
34278;SDS011;20538;51.528;9.942;2023-09-30T07:13:08;4.57;;;1.88;;
34278;SDS011;20538;51.528;9.942;2023-09-30T07:15:34;6.65;;;1.83;;
34278;SDS011;20538;51.528;9.942;2023-09-30T07:18:00;5.82;;;1.83;;
34278;SDS011;20538;51.528;9.942;2023-09-30T07:20:25;6.72;;;1.70;;
34278;SDS011;20538;51.528;9.942;2023-09-30T07:22:51;7.38;;;1.67;;
34278;SDS011;20538;51.528;9.942;2023-09-30T07:25:17;5.60;;;2.13;;
34278;SDS011;20538;51.528;9.942;2023-09-30T07:27:43;6.45;;;2.22;;
34278;SDS011;20538;51.528;9.942;2023-09-30T07:30:10;6.10;;;1.90;;
34278;SDS011;20538;51.528;9.942;2023-09-30T07:32:37;5.90;;;1.58;;
34278;SDS011;20538;51.528;9.942;2023-09-30T07:35:03;4.60;;;2.22;;
34278;SDS011;20538;51.528;9.942;2023-09-30T07:37:29;3.83;;;1.25;;
34278;SDS011;20538;51.528;9.942;2023-09-30T07:39:55;4.65;;;1.67;;
34278;SDS011;20538;51.528;9.942;2023-09-30T07:42:20;8.32;;;1.58;;
34278;SDS011;20538;51.528;9.942;2023-09-30T07:44:47;8.48;;;1.85;;
34278;SDS011;20538;51.528;9.942;2023-09-30T07:47:13;8.15;;;1.42;;
34278;SDS011;20538;51.528;9.942;2023-09-30T07:49:39;8.82;;;2.20;;
34278;SDS011;20538;51.528;9.942;2023-09-30T07:52:05;7.97;;;2.08;;
34278;SDS011;20538;51.528;9.942;2023-09-30T07:54:31;12.25;;;2.08;;
34278;SDS011;20538;51.528;9.942;2023-09-30T07:56:57;8.23;;;1.83;;
34278;SDS011;20538;51.528;9.942;2023-09-30T07:59:24;10.15;;;2.50;;
34278;SDS011;20538;51.528;9.942;2023-09-30T08:01:50;9.13;;;1.92;;
34278;SDS011;20538;51.528;9.942;2023-09-30T08:04:17;15.80;;;3.58;;
34278;SDS011;20538;51.528;9.942;2023-09-30T08:06:43;6.68;;;2.03;;
34278;SDS011;20538;51.528;9.942;2023-09-30T08:09:09;6.00;;;1.63;;
34278;SDS011;20538;51.528;9.942;2023-09-30T08:11:38;5.95;;;2.00;;
34278;SDS011;20538;51.528;9.942;2023-09-30T08:14:04;8.48;;;2.13;;
34278;SDS011;20538;51.528;9.942;2023-09-30T08:16:38;7.65;;;1.40;;
34278;SDS011;20538;51.528;9.942;2023-09-30T08:19:03;9.50;;;2.13;;
34278;SDS011;20538;51.528;9.942;2023-09-30T08:21:30;14.82;;;1.92;;
34278;SDS011;20538;51.528;9.942;2023-09-30T08:23:56;8.25;;;1.80;;
34278;SDS011;20538;51.528;9.942;2023-09-30T08:26:22;6.25;;;1.80;;
34278;SDS011;20538;51.528;9.942;2023-09-30T08:28:47;6.50;;;2.13;;
34278;SDS011;20538;51.528;9.942;2023-09-30T08:31:14;6.30;;;1.42;;
34278;SDS011;20538;51.528;9.942;2023-09-30T08:33:39;8.10;;;1.73;;
34278;SDS011;20538;51.528;9.942;2023-09-30T08:36:08;12.05;;;1.50;;
34278;SDS011;20538;51.528;9.942;2023-09-30T08:38:35;5.38;;;2.30;;
34278;SDS011;20538;51.528;9.942;2023-09-30T08:41:02;7.47;;;1.90;;
34278;SDS011;20538;51.528;9.942;2023-09-30T08:43:28;7.43;;;2.00;;
34278;SDS011;20538;51.528;9.942;2023-09-30T08:45:56;13.63;;;2.03;;
34278;SDS011;20538;51.528;9.942;2023-09-30T08:48:24;4.40;;;1.60;;
34278;SDS011;20538;51.528;9.942;2023-09-30T08:50:55;4.75;;;1.40;;
34278;SDS011;20538;51.528;9.942;2023-09-30T08:53:25;4.93;;;1.42;;
34278;SDS011;20538;51.528;9.942;2023-09-30T08:55:54;10.48;;;1.92;;
34278;SDS011;20538;51.528;9.942;2023-09-30T08:58:27;8.68;;;1.67;;
34278;SDS011;20538;51.528;9.942;2023-09-30T09:00:54;4.95;;;1.30;;
34278;SDS011;20538;51.528;9.942;2023-09-30T09:03:21;2.13;;;1.17;;
34278;SDS011;20538;51.528;9.942;2023-09-30T09:05:56;2.88;;;1.33;;
34278;SDS011;20538;51.528;9.942;2023-09-30T09:08:23;4.63;;;1.70;;
34278;SDS011;20538;51.528;9.942;2023-09-30T09:10:54;9.45;;;1.98;;
34278;SDS011;20538;51.528;9.942;2023-09-30T09:13:21;6.13;;;2.15;;
34278;SDS011;20538;51.528;9.942;2023-09-30T09:15:47;4.90;;;1.70;;
34278;SDS011;20538;51.528;9.942;2023-09-30T09:18:14;4.53;;;1.42;;
34278;SDS011;20538;51.528;9.942;2023-09-30T09:21:14;5.18;;;1.77;;
34278;SDS011;20538;51.528;9.942;2023-09-30T09:23:41;5.30;;;1.75;;
34278;SDS011;20538;51.528;9.942;2023-09-30T09:26:11;6.57;;;2.17;;
34278;SDS011;20538;51.528;9.942;2023-09-30T09:28:38;7.82;;;1.35;;
34278;SDS011;20538;51.528;9.942;2023-09-30T09:31:26;6.20;;;1.17;;
34278;SDS011;20538;51.528;9.942;2023-09-30T09:33:54;4.45;;;1.52;;
34278;SDS011;20538;51.528;9.942;2023-09-30T09:36:20;2.72;;;1.10;;
34278;SDS011;20538;51.528;9.942;2023-09-30T09:38:47;3.17;;;0.98;;
34278;SDS011;20538;51.528;9.942;2023-09-30T09:41:18;3.78;;;1.05;;
34278;SDS011;20538;51.528;9.942;2023-09-30T09:43:49;3.70;;;1.05;;
34278;SDS011;20538;51.528;9.942;2023-09-30T09:46:16;6.32;;;1.48;;
34278;SDS011;20538;51.528;9.942;2023-09-30T09:48:42;3.50;;;1.23;;
34278;SDS011;20538;51.528;9.942;2023-09-30T09:51:11;3.63;;;1.30;;
34278;SDS011;20538;51.528;9.942;2023-09-30T09:53:38;6.60;;;1.58;;
34278;SDS011;20538;51.528;9.942;2023-09-30T09:56:06;2.05;;;0.93;;
34278;SDS011;20538;51.528;9.942;2023-09-30T09:58:35;5.50;;;1.17;;
34278;SDS011;20538;51.528;9.942;2023-09-30T10:01:04;4.80;;;1.42;;
34278;SDS011;20538;51.528;9.942;2023-09-30T10:03:31;5.53;;;1.15;;
34278;SDS011;20538;51.528;9.942;2023-09-30T10:05:58;4.32;;;0.95;;
34278;SDS011;20538;51.528;9.942;2023-09-30T10:08:32;3.60;;;1.30;;
34278;SDS011;20538;51.528;9.942;2023-09-30T10:11:01;2.70;;;1.05;;
34278;SDS011;20538;51.528;9.942;2023-09-30T10:24:46;2.15;;;1.05;;
34278;SDS011;20538;51.528;9.942;2023-09-30T10:30:14;2.53;;;0.93;;
34278;SDS011;20538;51.528;9.942;2023-09-30T10:35:41;4.35;;;1.00;;
34278;SDS011;20538;51.528;9.942;2023-09-30T10:38:50;6.38;;;0.93;;
34278;SDS011;20538;51.528;9.942;2023-09-30T10:41:00;6.85;;;1.00;;
34278;SDS011;20538;51.528;9.942;2023-09-30T10:46:03;4.38;;;1.13;;
34278;SDS011;20538;51.528;9.942;2023-09-30T10:48:49;4.53;;;1.13;;
34278;SDS011;20538;51.528;9.942;2023-09-30T10:51:16;3.25;;;1.42;;
34278;SDS011;20538;51.528;9.942;2023-09-30T10:53:57;5.40;;;0.73;;
34278;SDS011;20538;51.528;9.942;2023-09-30T10:56:31;8.18;;;1.58;;
34278;SDS011;20538;51.528;9.942;2023-09-30T10:58:58;6.22;;;0.93;;
34278;SDS011;20538;51.528;9.942;2023-09-30T11:01:31;4.80;;;1.08;;
34278;SDS011;20538;51.528;9.942;2023-09-30T11:03:59;6.00;;;1.02;;
34278;SDS011;20538;51.528;9.942;2023-09-30T11:06:31;2.90;;;0.82;;
34278;SDS011;20538;51.528;9.942;2023-09-30T11:08:58;4.82;;;0.82;;
34278;SDS011;20538;51.528;9.942;2023-09-30T11:11:37;3.53;;;0.80;;
34278;SDS011;20538;51.528;9.942;2023-09-30T11:14:23;7.55;;;1.30;;
34278;SDS011;20538;51.528;9.942;2023-09-30T11:16:50;2.67;;;0.65;;
34278;SDS011;20538;51.528;9.942;2023-09-30T11:19:17;3.15;;;0.68;;
34278;SDS011;20538;51.528;9.942;2023-09-30T11:21:51;1.52;;;0.73;;
34278;SDS011;20538;51.528;9.942;2023-09-30T11:24:18;7.28;;;1.05;;
34278;SDS011;20538;51.528;9.942;2023-09-30T11:26:44;3.35;;;1.00;;
34278;SDS011;20538;51.528;9.942;2023-09-30T11:31:44;4.72;;;0.70;;
34278;SDS011;20538;51.528;9.942;2023-09-30T11:34:12;1.98;;;0.75;;
34278;SDS011;20538;51.528;9.942;2023-09-30T11:36:39;1.33;;;0.82;;
34278;SDS011;20538;51.528;9.942;2023-09-30T11:39:09;2.10;;;0.70;;
34278;SDS011;20538;51.528;9.942;2023-09-30T11:41:39;3.13;;;1.13;;
34278;SDS011;20538;51.528;9.942;2023-09-30T11:44:09;6.80;;;1.13;;
34278;SDS011;20538;51.528;9.942;2023-09-30T11:46:50;2.80;;;1.15;;
34278;SDS011;20538;51.528;9.942;2023-09-30T11:49:39;4.90;;;0.70;;
34278;SDS011;20538;51.528;9.942;2023-09-30T11:52:10;1.92;;;0.80;;
34278;SDS011;20538;51.528;9.942;2023-09-30T11:54:39;2.63;;;0.90;;
34278;SDS011;20538;51.528;9.942;2023-09-30T11:57:13;5.25;;;0.88;;
34278;SDS011;20538;51.528;9.942;2023-09-30T11:59:40;1.17;;;0.50;;
34278;SDS011;20538;51.528;9.942;2023-09-30T12:02:07;4.93;;;1.15;;
34278;SDS011;20538;51.528;9.942;2023-09-30T12:04:34;3.13;;;0.50;;
34278;SDS011;20538;51.528;9.942;2023-09-30T12:07:00;7.88;;;0.80;;
34278;SDS011;20538;51.528;9.942;2023-09-30T12:09:27;1.15;;;0.43;;
34278;SDS011;20538;51.528;9.942;2023-09-30T12:11:53;6.35;;;0.70;;
34278;SDS011;20538;51.528;9.942;2023-09-30T12:14:20;1.08;;;0.57;;
34278;SDS011;20538;51.528;9.942;2023-09-30T12:16:46;3.28;;;0.80;;
34278;SDS011;20538;51.528;9.942;2023-09-30T12:19:19;2.25;;;0.60;;
34278;SDS011;20538;51.528;9.942;2023-09-30T12:21:45;2.45;;;0.93;;
34278;SDS011;20538;51.528;9.942;2023-09-30T12:24:13;4.07;;;0.68;;
34278;SDS011;20538;51.528;9.942;2023-09-30T12:26:45;5.63;;;1.13;;
34278;SDS011;20538;51.528;9.942;2023-09-30T12:29:13;2.50;;;0.70;;
34278;SDS011;20538;51.528;9.942;2023-09-30T12:31:46;4.07;;;1.00;;
34278;SDS011;20538;51.528;9.942;2023-09-30T12:34:12;4.57;;;1.20;;
34278;SDS011;20538;51.528;9.942;2023-09-30T12:36:42;1.80;;;0.60;;
34278;SDS011;20538;51.528;9.942;2023-09-30T12:39:08;2.88;;;0.90;;
34278;SDS011;20538;51.528;9.942;2023-09-30T12:41:38;2.63;;;0.50;;
34278;SDS011;20538;51.528;9.942;2023-09-30T12:44:07;2.90;;;0.90;;
34278;SDS011;20538;51.528;9.942;2023-09-30T12:46:34;2.97;;;0.80;;
34278;SDS011;20538;51.528;9.942;2023-09-30T12:49:02;2.13;;;0.75;;
34278;SDS011;20538;51.528;9.942;2023-09-30T12:51:34;2.05;;;0.73;;
34278;SDS011;20538;51.528;9.942;2023-09-30T12:54:01;1.88;;;1.05;;
34278;SDS011;20538;51.528;9.942;2023-09-30T12:56:27;2.13;;;0.90;;
34278;SDS011;20538;51.528;9.942;2023-09-30T12:58:54;2.90;;;0.70;;
34278;SDS011;20538;51.528;9.942;2023-09-30T13:01:21;5.13;;;0.80;;
34278;SDS011;20538;51.528;9.942;2023-09-30T13:03:48;5.00;;;0.75;;
34278;SDS011;20538;51.528;9.942;2023-09-30T13:06:14;1.00;;;0.60;;
34278;SDS011;20538;51.528;9.942;2023-09-30T13:08:42;1.75;;;0.93;;
34278;SDS011;20538;51.528;9.942;2023-09-30T13:11:08;4.05;;;0.82;;
34278;SDS011;20538;51.528;9.942;2023-09-30T13:13:34;1.77;;;0.65;;
34278;SDS011;20538;51.528;9.942;2023-09-30T13:16:00;5.68;;;2.28;;
34278;SDS011;20538;51.528;9.942;2023-09-30T13:18:26;2.75;;;1.02;;
34278;SDS011;20538;51.528;9.942;2023-09-30T13:20:52;2.08;;;0.90;;
34278;SDS011;20538;51.528;9.942;2023-09-30T13:23:18;3.17;;;1.15;;
34278;SDS011;20538;51.528;9.942;2023-09-30T13:25:44;5.57;;;0.93;;
34278;SDS011;20538;51.528;9.942;2023-09-30T13:28:10;3.13;;;0.93;;
34278;SDS011;20538;51.528;9.942;2023-09-30T13:30:36;2.03;;;1.00;;
34278;SDS011;20538;51.528;9.942;2023-09-30T13:33:02;4.63;;;1.38;;
34278;SDS011;20538;51.528;9.942;2023-09-30T13:35:28;2.33;;;1.10;;
34278;SDS011;20538;51.528;9.942;2023-09-30T13:37:53;4.95;;;1.30;;
34278;SDS011;20538;51.528;9.942;2023-09-30T13:40:19;3.50;;;1.25;;
34278;SDS011;20538;51.528;9.942;2023-09-30T13:42:45;10.13;;;1.20;;
34278;SDS011;20538;51.528;9.942;2023-09-30T13:45:11;2.53;;;1.17;;
34278;SDS011;20538;51.528;9.942;2023-09-30T13:47:37;4.78;;;1.58;;
34278;SDS011;20538;51.528;9.942;2023-09-30T13:50:03;3.80;;;1.05;;
34278;SDS011;20538;51.528;9.942;2023-09-30T13:52:31;2.88;;;1.00;;
34278;SDS011;20538;51.528;9.942;2023-09-30T13:54:58;7.10;;;1.27;;
34278;SDS011;20538;51.528;9.942;2023-09-30T13:57:24;1.85;;;0.95;;
34278;SDS011;20538;51.528;9.942;2023-09-30T13:59:50;4.07;;;1.55;;
34278;SDS011;20538;51.528;9.942;2023-09-30T14:02:16;5.10;;;1.27;;
34278;SDS011;20538;51.528;9.942;2023-09-30T14:04:42;2.22;;;1.42;;
34278;SDS011;20538;51.528;9.942;2023-09-30T14:07:09;2.75;;;1.30;;
34278;SDS011;20538;51.528;9.942;2023-09-30T14:09:34;3.55;;;1.42;;
34278;SDS011;20538;51.528;9.942;2023-09-30T14:12:01;1.85;;;1.00;;
34278;SDS011;20538;51.528;9.942;2023-09-30T14:14:34;3.10;;;1.33;;
34278;SDS011;20538;51.528;9.942;2023-09-30T14:17:00;3.08;;;1.27;;
34278;SDS011;20538;51.528;9.942;2023-09-30T14:19:32;2.15;;;1.10;;
34278;SDS011;20538;51.528;9.942;2023-09-30T14:21:58;3.25;;;1.40;;
34278;SDS011;20538;51.528;9.942;2023-09-30T14:24:24;2.45;;;1.10;;
34278;SDS011;20538;51.528;9.942;2023-09-30T14:26:50;2.75;;;0.93;;
34278;SDS011;20538;51.528;9.942;2023-09-30T14:29:16;5.45;;;0.93;;
34278;SDS011;20538;51.528;9.942;2023-09-30T14:31:41;1.95;;;1.27;;
34278;SDS011;20538;51.528;9.942;2023-09-30T14:34:07;3.58;;;1.30;;
34278;SDS011;20538;51.528;9.942;2023-09-30T14:36:33;3.83;;;1.25;;
34278;SDS011;20538;51.528;9.942;2023-09-30T14:38:59;1.85;;;1.08;;
34278;SDS011;20538;51.528;9.942;2023-09-30T14:41:25;1.00;;;0.90;;
34278;SDS011;20538;51.528;9.942;2023-09-30T14:43:51;2.42;;;1.10;;
34278;SDS011;20538;51.528;9.942;2023-09-30T14:46:16;4.38;;;1.60;;
34278;SDS011;20538;51.528;9.942;2023-09-30T14:48:42;3.88;;;1.25;;
34278;SDS011;20538;51.528;9.942;2023-09-30T14:51:08;1.65;;;1.30;;
34278;SDS011;20538;51.528;9.942;2023-09-30T14:53:34;1.85;;;1.30;;
34278;SDS011;20538;51.528;9.942;2023-09-30T14:56:00;2.78;;;1.20;;
34278;SDS011;20538;51.528;9.942;2023-09-30T14:58:26;1.73;;;1.13;;
34278;SDS011;20538;51.528;9.942;2023-09-30T15:00:51;1.67;;;0.98;;
34278;SDS011;20538;51.528;9.942;2023-09-30T15:03:18;2.72;;;1.50;;
34278;SDS011;20538;51.528;9.942;2023-09-30T15:05:45;1.52;;;1.15;;
34278;SDS011;20538;51.528;9.942;2023-09-30T15:08:11;4.70;;;1.38;;
34278;SDS011;20538;51.528;9.942;2023-09-30T15:10:37;2.03;;;1.58;;